createdAt,value
2022-11-15T00:01:11.664Z,101082.47
2022-11-15T00:03:39.127Z,101078.94
2022-11-15T00:06:07.926Z,101072.06
2022-11-15T00:08:35.527Z,101067.84
2022-11-15T00:11:04.835Z,101063.44
2022-11-15T00:13:32.693Z,101064.19
2022-11-15T00:16:01.606Z,101060.19
2022-11-15T00:18:29.626Z,101057.00
2022-11-15T00:20:57.781Z,101048.19
2022-11-15T00:23:26.506Z,101045.00
2022-11-15T00:26:00.462Z,101050.31
2022-11-15T00:28:28.509Z,101043.75
2022-11-15T00:30:56.164Z,101032.53
2022-11-15T00:33:23.757Z,101044.94
2022-11-15T00:35:51.196Z,101040.38
2022-11-15T00:38:18.694Z,101042.66
2022-11-15T00:40:47.500Z,101038.00
2022-11-15T00:43:15.101Z,101031.19
2022-11-15T00:45:42.852Z,101036.50
2022-11-15T00:48:11.673Z,101031.13
2022-11-15T00:50:39.144Z,101034.50
2022-11-15T00:53:06.579Z,101022.66
2022-11-15T00:55:34.110Z,101026.53
2022-11-15T00:58:02.849Z,101033.28
2022-11-15T01:00:30.530Z,101032.53
2022-11-15T01:02:58.085Z,101028.09
2022-11-15T01:05:25.796Z,101017.97
2022-11-15T01:07:53.910Z,101023.81
2022-11-15T01:10:21.637Z,101015.25
2022-11-15T01:12:49.290Z,101013.63
2022-11-15T01:15:18.335Z,101019.72
2022-11-15T01:17:45.772Z,101008.56
2022-11-15T01:20:13.853Z,101006.81
2022-11-15T01:22:41.327Z,101008.63
2022-11-15T01:25:08.744Z,100997.97
2022-11-15T01:27:36.185Z,100993.31
2022-11-15T01:30:03.745Z,100998.28
2022-11-15T01:32:32.533Z,100984.31
2022-11-15T01:34:59.936Z,100982.63
2022-11-15T01:37:27.375Z,100986.31
2022-11-15T01:39:54.808Z,100985.53
2022-11-15T01:42:22.219Z,100982.72
2022-11-15T01:44:51.479Z,100977.81
2022-11-15T01:47:22.131Z,100968.25
2022-11-15T01:49:57.181Z,100959.78
2022-11-15T01:52:27.238Z,100962.34
2022-11-15T01:54:58.349Z,100955.28
2022-11-15T01:57:25.961Z,100957.00
2022-11-15T01:59:53.347Z,100950.00
2022-11-15T02:02:20.755Z,100944.34
2022-11-15T02:04:49.344Z,100942.94
2022-11-15T02:07:19.807Z,100943.63
2022-11-15T02:09:47.918Z,100942.94
2022-11-15T02:12:18.337Z,100944.91
2022-11-15T02:14:50.144Z,100946.63
2022-11-15T02:17:33.380Z,100941.53
2022-11-15T02:20:30.990Z,100940.69
2022-11-15T02:23:16.046Z,100945.00
2022-11-15T02:25:58.990Z,100949.69
2022-11-15T02:28:46.603Z,100949.84
2022-11-15T02:31:27.215Z,100949.94
2022-11-15T02:34:00.530Z,100953.00
2022-11-15T02:36:37.682Z,100946.72
2022-11-15T02:39:12.222Z,100949.38
2022-11-15T02:41:47.827Z,100949.63
2022-11-15T02:44:22.589Z,100944.53
2022-11-15T02:47:12.519Z,100932.66
2022-11-15T02:49:42.695Z,100931.91
2022-11-15T02:52:10.111Z,100925.69
2022-11-15T02:54:37.658Z,100928.81
2022-11-15T02:57:09.020Z,100928.88
2022-11-15T02:59:59.959Z,100918.03
2022-11-15T03:02:44.754Z,100920.44
2022-11-15T03:05:21.224Z,100925.94
2022-11-15T03:08:01.866Z,100933.38
2022-11-15T03:10:37.939Z,100923.41
2022-11-15T03:13:14.035Z,100930.09
2022-11-15T03:15:49.535Z,100921.41
2022-11-15T03:18:23.422Z,100917.09
2022-11-15T03:20:52.337Z,100921.94
2022-11-15T03:23:19.920Z,100920.56
2022-11-15T03:25:50.756Z,100920.25
2022-11-15T03:28:24.411Z,100919.28
2022-11-15T03:30:54.096Z,100927.22
2022-11-15T03:33:23.975Z,100932.28
2022-11-15T03:35:53.212Z,100918.78
2022-11-15T03:38:25.358Z,100915.31
2022-11-15T03:41:02.016Z,100915.09
2022-11-15T03:43:34.774Z,100914.31
2022-11-15T03:46:06.447Z,100918.16
2022-11-15T03:48:42.110Z,100907.06
2022-11-15T03:51:09.977Z,100916.16
2022-11-15T03:53:37.545Z,100918.75
2022-11-15T03:56:05.279Z,100910.84
2022-11-15T03:58:32.728Z,100907.41
2022-11-15T04:01:00.450Z,100896.72
2022-11-15T04:03:28.323Z,100906.94
2022-11-15T04:05:57.215Z,100906.75
2022-11-15T04:08:24.644Z,100903.63
2022-11-15T04:10:52.096Z,100903.53
2022-11-15T04:13:19.539Z,100903.25
2022-11-15T04:15:47.009Z,100900.31
2022-11-15T04:18:14.420Z,100897.63
2022-11-15T04:20:59.230Z,100892.59
2022-11-15T04:23:45.789Z,100895.91
2022-11-15T04:26:16.462Z,100897.53
2022-11-15T04:28:57.930Z,100906.94
2022-11-15T04:31:25.317Z,100900.09
2022-11-15T04:33:52.858Z,100898.13
2022-11-15T04:36:38.402Z,100901.34
2022-11-15T04:39:07.416Z,100884.56
2022-11-15T04:41:35.064Z,100894.91
2022-11-15T04:44:02.544Z,100885.97
2022-11-15T04:46:30.116Z,100875.84
2022-11-15T04:48:59.269Z,100881.97
2022-11-15T04:51:26.981Z,100873.34
2022-11-15T04:53:54.609Z,100876.97
2022-11-15T04:56:23.324Z,100876.13
2022-11-15T04:58:50.813Z,100873.38
2022-11-15T05:01:18.777Z,100874.34
2022-11-15T05:04:04.263Z,100882.09
2022-11-15T05:06:32.273Z,100874.44
2022-11-15T05:09:00.259Z,100886.25
2022-11-15T05:11:29.141Z,100886.91
2022-11-15T05:13:57.011Z,100880.25
2022-11-15T05:16:24.469Z,100879.50
2022-11-15T05:18:53.256Z,100886.44
2022-11-15T05:21:22.369Z,100885.50
2022-11-15T05:23:49.883Z,100886.13
2022-11-15T05:26:19.009Z,100892.25
2022-11-15T05:28:47.747Z,100882.97
2022-11-15T05:31:17.475Z,100884.56
2022-11-15T05:33:46.060Z,100878.66
2022-11-15T05:36:18.955Z,100878.63
2022-11-15T05:38:47.438Z,100887.94
2022-11-15T05:41:16.073Z,100879.47
2022-11-15T05:43:45.378Z,100882.00
2022-11-15T05:46:15.628Z,100880.22
2022-11-15T05:48:47.177Z,100877.78
2022-11-15T05:51:17.319Z,100886.41
2022-11-15T05:53:45.372Z,100885.97
2022-11-15T05:56:13.638Z,100879.09
2022-11-15T05:58:41.089Z,100889.25
2022-11-15T06:01:08.606Z,100890.16
2022-11-15T06:03:37.324Z,100889.59
2022-11-15T06:06:05.024Z,100888.44
2022-11-15T06:08:32.477Z,100883.91
2022-11-15T06:11:05.594Z,100886.84
2022-11-15T06:13:33.807Z,100891.28
2022-11-15T06:16:01.814Z,100886.75
2022-11-15T06:18:29.221Z,100897.06
2022-11-15T06:21:01.647Z,100896.81
2022-11-15T06:23:29.546Z,100899.41
2022-11-15T06:25:59.900Z,100901.50
2022-11-15T06:28:30.055Z,100904.72
2022-11-15T06:30:57.988Z,100909.59
2022-11-15T06:33:25.455Z,100898.72
2022-11-15T06:35:52.891Z,100905.84
2022-11-15T06:38:21.938Z,100906.75
2022-11-15T06:40:49.366Z,100892.94
2022-11-15T06:43:17.718Z,100891.44
2022-11-15T06:45:45.111Z,100902.63
2022-11-15T06:48:12.535Z,100906.75
2022-11-15T06:50:39.930Z,100898.22
2022-11-15T06:53:07.336Z,100910.38
2022-11-15T06:55:36.095Z,100913.09
2022-11-15T06:58:03.562Z,100907.94
2022-11-15T07:00:30.988Z,100909.72
2022-11-15T07:03:01.823Z,100909.00
2022-11-15T07:05:29.436Z,100916.47
2022-11-15T07:07:58.142Z,100913.81
2022-11-15T07:10:26.482Z,100908.81
2022-11-15T07:12:56.207Z,100919.91
2022-11-15T07:15:26.140Z,100911.38
2022-11-15T07:17:53.738Z,100922.88
2022-11-15T07:20:21.179Z,100930.59
2022-11-15T07:22:48.579Z,100930.69
2022-11-15T07:25:16.004Z,100926.44
2022-11-15T07:27:43.570Z,100929.47
2022-11-15T07:30:15.649Z,100927.97
2022-11-15T07:32:43.308Z,100923.88
2022-11-15T07:35:10.781Z,100923.41
2022-11-15T07:37:38.169Z,100919.63
2022-11-15T07:40:06.396Z,100924.34
2022-11-15T07:42:51.429Z,100927.72
2022-11-15T07:45:20.370Z,100923.09
2022-11-15T07:47:48.142Z,100921.34
2022-11-15T07:50:15.761Z,100918.44
2022-11-15T07:52:43.178Z,100918.31
2022-11-15T07:55:10.935Z,100919.78
2022-11-15T07:57:38.470Z,100916.63
2022-11-15T08:00:07.957Z,100918.50
2022-11-15T08:02:36.773Z,100905.50
2022-11-15T08:05:04.937Z,100907.34
2022-11-15T08:07:33.146Z,100908.84
2022-11-15T08:10:02.107Z,100905.75
2022-11-15T08:12:30.538Z,100905.19
2022-11-15T08:14:57.992Z,100905.22
2022-11-15T08:17:26.335Z,100904.41
2022-11-15T08:19:55.609Z,100905.31
2022-11-15T08:22:23.047Z,100904.38
2022-11-15T08:24:50.522Z,100908.91
2022-11-15T08:27:18.011Z,100905.44
2022-11-15T08:29:46.404Z,100893.38
2022-11-15T08:32:13.910Z,100894.47
2022-11-15T08:34:41.376Z,100902.09
2022-11-15T08:37:10.092Z,100901.53
2022-11-15T08:39:37.506Z,100901.56
2022-11-15T08:42:05.226Z,100903.16
2022-11-15T08:44:32.650Z,100904.97
2022-11-15T08:47:00.020Z,100900.00
2022-11-15T08:49:27.474Z,100903.44
2022-11-15T08:51:54.861Z,100902.28
2022-11-15T08:54:23.653Z,100903.22
2022-11-15T08:56:51.106Z,100910.44
2022-11-15T08:59:18.472Z,100901.91
2022-11-15T09:01:45.959Z,100914.78
2022-11-15T09:04:13.425Z,100906.34
2022-11-15T09:06:43.170Z,100904.53
2022-11-15T09:09:13.213Z,100890.00
2022-11-15T09:11:42.020Z,100883.22
2022-11-15T09:14:09.726Z,100887.66
2022-11-15T09:16:37.144Z,100887.88
2022-11-15T09:19:10.414Z,100880.34
2022-11-15T09:21:39.135Z,100883.84
2022-11-15T09:24:07.080Z,100880.41
2022-11-15T09:26:34.553Z,100877.81
2022-11-15T09:29:03.468Z,100885.59
2022-11-15T09:31:31.355Z,100878.47
2022-11-15T09:33:58.777Z,100883.88
2022-11-15T09:36:26.703Z,100890.72
2022-11-15T09:38:54.131Z,100888.19
2022-11-15T09:41:52.421Z,100888.13
2022-11-15T09:44:44.704Z,100891.59
2022-11-15T09:47:34.108Z,100883.81
2022-11-15T09:50:03.966Z,100881.09
2022-11-15T09:52:31.338Z,100884.66
2022-11-15T09:54:58.812Z,100883.00
2022-11-15T09:57:33.393Z,100874.31
2022-11-15T10:00:43.835Z,100879.31
2022-11-15T10:03:09.889Z,100880.22
2022-11-15T10:05:40.584Z,100879.31
2022-11-15T10:08:23.179Z,100873.31
2022-11-15T10:11:15.780Z,100869.84
2022-11-15T10:13:44.958Z,100864.63
2022-11-15T10:16:48.525Z,100854.16
2022-11-15T10:19:25.687Z,100848.97
2022-11-15T10:22:02.504Z,100850.81
2022-11-15T10:24:35.707Z,100835.38
2022-11-15T10:27:03.404Z,100839.72
2022-11-15T10:29:30.855Z,100837.97
2022-11-15T10:31:58.267Z,100832.75
2022-11-15T10:34:28.085Z,100824.25
2022-11-15T10:37:01.198Z,100820.00
2022-11-15T10:39:28.770Z,100815.66
2022-11-15T10:41:56.286Z,100815.69
2022-11-15T10:44:30.502Z,100813.00
2022-11-15T10:47:39.477Z,100806.19
2022-11-15T10:50:28.847Z,100806.19
2022-11-15T10:52:56.646Z,100801.03
2022-11-15T10:55:28.140Z,100794.97
2022-11-15T10:57:58.058Z,100796.72
2022-11-15T11:00:34.807Z,100799.31
2022-11-15T11:03:04.783Z,100793.28
2022-11-15T11:05:41.298Z,100792.41
2022-11-15T11:08:24.369Z,100781.19
2022-11-15T11:11:01.427Z,100771.69
2022-11-15T11:13:31.905Z,100771.69
2022-11-15T11:16:11.507Z,100767.41
2022-11-15T11:18:51.623Z,100767.34
2022-11-15T11:21:33.010Z,100761.28
2022-11-15T11:24:10.215Z,100759.53
2022-11-15T11:26:45.459Z,100762.97
2022-11-15T11:29:28.010Z,100758.72
2022-11-15T11:32:03.825Z,100755.22
2022-11-15T11:34:44.938Z,100767.34
2022-11-15T11:37:19.748Z,100771.66
2022-11-15T11:39:58.627Z,100757.81
2022-11-15T11:42:34.396Z,100758.63
2022-11-15T11:45:13.596Z,100753.53
2022-11-15T11:47:42.401Z,100757.88
2022-11-15T11:50:15.914Z,100755.22
2022-11-15T11:52:53.656Z,100755.22
2022-11-15T11:55:25.078Z,100744.81
2022-11-15T11:58:00.833Z,100744.03
2022-11-15T12:00:29.504Z,100737.09
2022-11-15T12:03:08.066Z,100731.88
2022-11-15T12:05:38.980Z,100723.25
2022-11-15T12:08:24.598Z,100721.59
2022-11-15T12:10:59.598Z,100723.25
2022-11-15T12:13:34.356Z,100729.41
2022-11-15T12:16:10.473Z,100720.66
2022-11-15T12:18:39.313Z,100719.75
2022-11-15T12:21:28.155Z,100716.38
2022-11-15T12:24:05.251Z,100715.34
2022-11-15T12:26:38.459Z,100710.06
2022-11-15T12:29:14.707Z,100711.97
2022-11-15T12:31:45.789Z,100703.25
2022-11-15T12:34:36.938Z,100709.34
2022-11-15T12:37:56.075Z,100704.22
2022-11-15T12:40:36.623Z,100704.91
2022-11-15T12:43:21.322Z,100698.84
2022-11-15T12:45:48.774Z,100686.75
2022-11-15T12:48:59.050Z,100681.59
2022-11-15T12:52:09.269Z,100678.09
2022-11-15T12:54:55.052Z,100669.31
2022-11-15T12:57:42.628Z,100669.53
2022-11-15T13:00:39.239Z,100672.81
2022-11-15T13:03:26.979Z,100678.16
2022-11-15T13:06:00.598Z,100671.28
2022-11-15T13:08:44.821Z,100671.25
2022-11-15T13:11:49.831Z,100671.19
2022-11-15T13:14:50.745Z,100670.22
2022-11-15T13:17:44.403Z,100666.72
2022-11-15T13:20:27.876Z,100661.53
2022-11-15T13:23:03.259Z,100671.06
2022-11-15T13:25:49.849Z,100663.38
2022-11-15T13:28:26.430Z,100664.03
2022-11-15T13:30:58.050Z,100655.16
2022-11-15T13:33:35.551Z,100657.09
2022-11-15T13:36:06.035Z,100657.28
2022-11-15T13:38:35.988Z,100662.53
2022-11-15T13:41:16.242Z,100660.72
2022-11-15T13:43:43.704Z,100660.69
2022-11-15T13:46:19.198Z,100652.84
2022-11-15T13:48:48.157Z,100659.84
2022-11-15T13:51:22.659Z,100647.69
2022-11-15T13:53:54.725Z,100643.56
2022-11-15T13:56:23.005Z,100649.44
2022-11-15T13:58:50.672Z,100655.34
2022-11-15T14:01:22.302Z,100647.72
2022-11-15T14:03:53.776Z,100659.03
2022-11-15T14:06:23.590Z,100655.56
2022-11-15T14:09:04.388Z,100660.81
2022-11-15T14:11:32.719Z,100656.44
2022-11-15T14:14:16.578Z,100660.78
2022-11-15T14:16:47.316Z,100655.38
2022-11-15T14:19:36.230Z,100655.44
2022-11-15T14:22:11.188Z,100652.13
2022-11-15T14:24:39.584Z,100646.16
2022-11-15T14:27:25.482Z,100651.50
2022-11-15T14:29:53.553Z,100643.88
2022-11-15T14:32:24.223Z,100646.41
2022-11-15T14:34:56.712Z,100640.16
2022-11-15T14:37:26.901Z,100643.69
2022-11-15T14:39:55.236Z,100643.69
2022-11-15T14:42:24.051Z,100651.41
2022-11-15T14:44:52.160Z,100637.50
2022-11-15T14:47:19.638Z,100631.75
2022-11-15T14:49:48.520Z,100627.41
2022-11-15T14:52:31.758Z,100633.41
2022-11-15T14:55:00.290Z,100629.97
2022-11-15T14:57:27.787Z,100631.72
2022-11-15T14:59:56.271Z,100629.97
2022-11-15T15:02:25.698Z,100620.41
2022-11-15T15:04:55.088Z,100617.03
2022-11-15T15:07:22.695Z,100616.22
2022-11-15T15:09:50.220Z,100616.31
2022-11-15T15:12:20.511Z,100612.72
2022-11-15T15:14:49.207Z,100611.88
2022-11-15T15:17:16.860Z,100615.28
2022-11-15T15:19:44.645Z,100610.13
2022-11-15T15:22:17.083Z,100607.59
2022-11-15T15:24:44.866Z,100611.09
2022-11-15T15:27:12.755Z,100613.72
2022-11-15T15:29:40.346Z,100617.13
2022-11-15T15:32:08.060Z,100611.06
2022-11-15T15:34:35.587Z,100609.41
2022-11-15T15:37:10.714Z,100605.09
2022-11-15T15:39:40.117Z,100605.13
2022-11-15T15:42:07.560Z,100607.66
2022-11-15T15:44:34.975Z,100606.88
2022-11-15T15:47:02.387Z,100610.31
2022-11-15T15:49:29.862Z,100606.94
2022-11-15T15:51:57.287Z,100611.19
2022-11-15T15:54:24.720Z,100595.63
2022-11-15T15:56:56.159Z,100590.63
2022-11-15T15:59:23.855Z,100588.94
2022-11-15T16:01:51.270Z,100591.44
2022-11-15T16:04:18.752Z,100594.09
2022-11-15T16:06:46.367Z,100587.25
2022-11-15T16:09:17.358Z,100594.13
2022-11-15T16:11:47.389Z,100583.78
2022-11-15T16:14:16.154Z,100586.41
2022-11-15T16:16:43.594Z,100574.25
2022-11-15T16:19:12.936Z,100573.41
2022-11-15T16:21:40.342Z,100573.31
2022-11-15T16:24:07.818Z,100573.38
2022-11-15T16:26:37.696Z,100577.63
2022-11-15T16:29:05.137Z,100573.38
2022-11-15T16:31:33.834Z,100569.00
2022-11-15T16:34:01.391Z,100575.19
2022-11-15T16:36:31.264Z,100577.78
2022-11-15T16:38:59.358Z,100582.06
2022-11-15T16:41:27.688Z,100574.31
2022-11-15T16:43:55.139Z,100576.03
2022-11-15T16:46:24.224Z,100567.44
2022-11-15T16:48:54.178Z,100572.59
2022-11-15T16:51:22.083Z,100567.41
2022-11-15T16:53:50.041Z,100574.31
2022-11-15T16:56:23.450Z,100570.00
2022-11-15T16:58:50.937Z,100561.38
2022-11-15T17:01:20.988Z,100565.69
2022-11-15T17:03:48.531Z,100571.69
2022-11-15T17:06:18.840Z,100566.44
2022-11-15T17:08:47.169Z,100574.09
2022-11-15T17:11:17.189Z,100575.72
2022-11-15T17:13:45.673Z,100570.69
2022-11-15T17:16:15.046Z,100579.78
2022-11-15T17:18:45.569Z,100559.34
2022-11-15T17:21:15.539Z,100559.28
2022-11-15T17:23:44.715Z,100563.47
2022-11-15T17:26:32.214Z,100561.94
2022-11-15T17:29:02.373Z,100561.97
2022-11-15T17:31:31.203Z,100556.75
2022-11-15T17:33:58.714Z,100559.63
2022-11-15T17:36:26.110Z,100557.03
2022-11-15T17:38:59.238Z,100566.41
2022-11-15T17:41:27.426Z,100560.97
2022-11-15T17:43:57.911Z,100562.66
2022-11-15T17:46:25.615Z,100562.66
2022-11-15T17:48:53.123Z,100562.31
2022-11-15T17:51:20.543Z,100560.50
2022-11-15T17:53:49.156Z,100563.97
2022-11-15T17:56:20.135Z,100559.81
2022-11-15T17:58:51.711Z,100565.72
2022-11-15T18:01:20.972Z,100566.03
2022-11-15T18:03:49.000Z,100569.41
2022-11-15T18:06:17.473Z,100568.16
2022-11-15T18:08:46.617Z,100565.09
2022-11-15T18:11:16.430Z,100570.13
2022-11-15T18:13:52.065Z,100572.63
2022-11-15T18:16:21.888Z,100570.81
2022-11-15T18:18:49.767Z,100566.75
2022-11-15T18:21:20.075Z,100559.78
2022-11-15T18:23:48.524Z,100562.88
2022-11-15T18:26:19.444Z,100554.66
2022-11-15T18:28:50.686Z,100556.22
2022-11-15T18:31:19.744Z,100550.16
2022-11-15T18:33:47.252Z,100549.88
2022-11-15T18:36:16.571Z,100544.47
2022-11-15T18:38:44.283Z,100556.78
2022-11-15T18:41:14.789Z,100551.06
2022-11-15T18:43:42.272Z,100542.63
2022-11-15T18:46:13.123Z,100542.16
2022-11-15T18:48:42.426Z,100540.50
2022-11-15T18:51:12.004Z,100539.34
2022-11-15T18:53:40.883Z,100549.34
2022-11-15T18:56:10.008Z,100548.16
2022-11-15T18:58:39.229Z,100553.22
2022-11-15T19:01:08.343Z,100550.00
2022-11-15T19:03:39.914Z,100544.66
2022-11-15T19:06:10.025Z,100546.41
2022-11-15T19:08:38.202Z,100547.13
2022-11-15T19:11:06.863Z,100552.16
2022-11-15T19:13:35.482Z,100541.13
2022-11-15T19:16:04.715Z,100543.69
2022-11-15T19:18:33.746Z,100545.94
2022-11-15T19:21:05.679Z,100544.91
2022-11-15T19:23:34.790Z,100550.59
2022-11-15T19:26:04.008Z,100537.41
2022-11-15T19:28:32.206Z,100540.91
2022-11-15T19:31:05.359Z,100548.91
2022-11-15T19:33:33.932Z,100550.94
2022-11-15T19:36:02.423Z,100549.91
2022-11-15T19:38:33.054Z,100547.47
2022-11-15T19:41:00.612Z,100561.44
2022-11-15T19:43:28.915Z,100554.38
2022-11-15T19:46:02.093Z,100544.44
2022-11-15T19:48:31.680Z,100538.19
2022-11-15T19:51:01.606Z,100540.84
2022-11-15T19:53:34.622Z,100545.75
2022-11-15T19:56:06.990Z,100550.38
2022-11-15T19:58:34.791Z,100555.75
2022-11-15T20:01:03.353Z,100560.19
2022-11-15T20:03:32.611Z,100559.22
2022-11-15T20:06:04.075Z,100555.22
2022-11-15T20:08:31.960Z,100553.13
2022-11-15T20:11:00.223Z,100557.16
2022-11-15T20:13:29.075Z,100558.50
2022-11-15T20:15:57.457Z,100555.78
2022-11-15T20:18:25.797Z,100547.56
2022-11-15T20:20:55.317Z,100557.16
2022-11-15T20:23:23.197Z,100546.44
2022-11-15T20:25:50.750Z,100549.53
2022-11-15T20:28:20.017Z,100542.22
2022-11-15T20:30:49.876Z,100553.69
2022-11-15T20:33:17.828Z,100550.84
2022-11-15T20:35:45.278Z,100548.09
2022-11-15T20:38:13.208Z,100551.66
2022-11-15T20:40:41.157Z,100551.72
2022-11-15T20:43:13.039Z,100559.28
2022-11-15T20:45:40.661Z,100558.38
2022-11-15T20:48:10.787Z,100553.53
2022-11-15T20:50:43.126Z,100552.78
2022-11-15T20:53:12.655Z,100544.03
2022-11-15T20:55:41.984Z,100545.91
2022-11-15T20:58:10.038Z,100542.91
2022-11-15T21:00:37.773Z,100539.66
2022-11-15T21:03:06.881Z,100543.97
2022-11-15T21:05:36.405Z,100545.34
2022-11-15T21:08:03.826Z,100553.16
2022-11-15T21:10:48.661Z,100542.94
2022-11-15T21:13:16.060Z,100543.31
2022-11-15T21:15:43.540Z,100540.56
2022-11-15T21:18:11.132Z,100533.84
2022-11-15T21:20:39.863Z,100536.38
2022-11-15T21:23:07.264Z,100534.44
2022-11-15T21:25:35.312Z,100529.63
2022-11-15T21:28:02.834Z,100530.50
2022-11-15T21:30:30.407Z,100527.22
2022-11-15T21:32:57.843Z,100527.22
2022-11-15T21:35:25.336Z,100531.81
2022-11-15T21:37:56.943Z,100528.69
2022-11-15T21:40:24.565Z,100524.00
2022-11-15T21:42:52.100Z,100517.84
2022-11-15T21:45:19.481Z,100515.13
2022-11-15T21:47:47.011Z,100508.16
2022-11-15T21:50:14.693Z,100511.59
2022-11-15T21:52:42.249Z,100516.91
2022-11-15T21:55:11.304Z,100515.75
2022-11-15T21:57:38.703Z,100513.81
2022-11-15T22:00:24.348Z,100517.00
2022-11-15T22:02:51.753Z,100510.44
2022-11-15T22:05:19.197Z,100509.31
2022-11-15T22:07:46.770Z,100509.72
2022-11-15T22:10:15.488Z,100506.47
2022-11-15T22:12:42.864Z,100500.69
2022-11-15T22:15:10.782Z,100505.00
2022-11-15T22:17:55.508Z,100512.41
2022-11-15T22:20:43.518Z,100509.13
2022-11-15T22:23:10.306Z,100510.72
2022-11-15T22:25:39.043Z,100500.72
2022-11-15T22:28:06.441Z,100504.56
2022-11-15T22:30:33.835Z,100494.91
2022-11-15T22:33:01.245Z,100506.34
2022-11-15T22:35:28.675Z,100498.72
2022-11-15T22:37:56.046Z,100500.28
2022-11-15T22:40:23.444Z,100489.16
2022-11-15T22:42:52.180Z,100498.75
2022-11-15T22:45:19.646Z,100488.13
2022-11-15T22:47:47.070Z,100476.72
2022-11-15T22:50:14.620Z,100481.75
2022-11-15T22:52:42.079Z,100473.56
2022-11-15T22:55:10.374Z,100472.88
2022-11-15T22:57:38.331Z,100467.91
2022-11-15T23:00:10.302Z,100471.97
2022-11-15T23:02:37.789Z,100463.16
2022-11-15T23:05:06.889Z,100462.66
2022-11-15T23:07:34.787Z,100469.59
2022-11-15T23:10:26.367Z,100464.00
2022-11-15T23:13:11.438Z,100460.44
2022-11-15T23:16:03.267Z,100451.78
2022-11-15T23:18:33.699Z,100453.59
2022-11-15T23:21:08.353Z,100436.59
2022-11-15T23:23:35.365Z,100437.72
2022-11-15T23:26:02.773Z,100432.94
2022-11-15T23:28:30.307Z,100434.34
2022-11-15T23:31:22.658Z,100439.03
2022-11-15T23:33:58.894Z,100442.81
2022-11-15T23:36:27.213Z,100446.94
2022-11-15T23:38:54.670Z,100449.75
2022-11-15T23:41:23.724Z,100455.94
2022-11-15T23:43:51.277Z,100448.72
2022-11-15T23:46:20.247Z,100447.41
2022-11-15T23:48:48.403Z,100450.06
2022-11-15T23:51:15.852Z,100443.25
2022-11-15T23:53:43.586Z,100436.09
2022-11-15T23:56:13.473Z,100441.91
2022-11-15T23:58:41.046Z,100437.16
